createdAt,value
2022-10-23T00:01:42.532Z,98953.38
2022-10-23T00:04:19.250Z,98955.06
2022-10-23T00:06:47.894Z,98959.53
2022-10-23T00:09:19.673Z,98957.97
2022-10-23T00:11:49.989Z,98960.00
2022-10-23T00:14:23.669Z,98955.84
2022-10-23T00:16:51.678Z,98953.34
2022-10-23T00:19:18.566Z,98957.97
2022-10-23T00:21:45.601Z,98957.19
2022-10-23T00:24:12.761Z,98953.91
2022-10-23T00:26:40.717Z,98952.09
2022-10-23T00:29:08.650Z,98954.59
2022-10-23T00:31:36.325Z,98949.31
2022-10-23T00:34:04.223Z,98955.56
2022-10-23T00:36:31.352Z,98949.31
2022-10-23T00:38:58.168Z,98946.72
2022-10-23T00:41:32.181Z,98948.53
2022-10-23T00:44:19.168Z,98945.13
2022-10-23T00:46:46.423Z,98945.19
2022-10-23T00:49:14.774Z,98947.06
2022-10-23T00:51:48.968Z,98955.84
2022-10-23T00:54:24.482Z,98947.13
2022-10-23T00:56:58.908Z,98947.28
2022-10-23T00:59:26.964Z,98951.72
2022-10-23T01:01:54.874Z,98952.66
2022-10-23T01:04:23.029Z,98957.16
2022-10-23T01:07:02.065Z,98964.13
2022-10-23T01:09:55.815Z,98960.63
2022-10-23T01:12:53.452Z,98959.88
2022-10-23T01:15:41.804Z,98959.03
2022-10-23T01:18:39.687Z,98959.03
2022-10-23T01:21:32.430Z,98955.50
2022-10-23T01:24:23.721Z,98959.94
2022-10-23T01:27:12.065Z,98968.72
2022-10-23T01:30:10.652Z,98967.88
2022-10-23T01:33:15.042Z,98967.13
2022-10-23T01:35:52.224Z,98962.81
2022-10-23T01:38:39.804Z,98961.19
2022-10-23T01:41:24.454Z,98966.56
2022-10-23T01:44:08.988Z,98959.59
2022-10-23T01:46:37.468Z,98962.31
2022-10-23T01:49:10.080Z,98964.19
2022-10-23T01:51:39.886Z,98962.50
2022-10-23T01:54:12.434Z,98955.41
2022-10-23T01:56:44.095Z,98960.78
2022-10-23T01:59:19.657Z,98955.47
2022-10-23T02:01:51.328Z,98955.47
2022-10-23T02:04:33.718Z,98951.09
2022-10-23T02:07:01.045Z,98954.63
2022-10-23T02:09:28.138Z,98960.69
2022-10-23T02:12:09.166Z,98959.66
2022-10-23T02:15:03.649Z,98957.09
2022-10-23T02:18:09.758Z,98956.31
2022-10-23T02:20:53.459Z,98959.03
2022-10-23T02:23:35.738Z,98952.97
2022-10-23T02:26:32.811Z,98941.47
2022-10-23T02:29:31.023Z,98944.19
2022-10-23T02:31:57.901Z,98941.59
2022-10-23T02:34:24.986Z,98939.03
2022-10-23T02:36:52.199Z,98938.09
2022-10-23T02:39:23.503Z,98934.59
2022-10-23T02:42:04.750Z,98938.19
2022-10-23T02:44:58.041Z,98940.97
2022-10-23T02:48:23.744Z,98940.13
2022-10-23T02:51:04.928Z,98930.47
2022-10-23T02:54:06.739Z,98927.19
2022-10-23T02:56:53.426Z,98924.75
2022-10-23T02:59:45.057Z,98928.34
2022-10-23T03:02:26.050Z,98933.63
2022-10-23T03:04:56.568Z,98936.34
2022-10-23T03:07:26.718Z,98938.13
2022-10-23T03:09:53.467Z,98940.84
2022-10-23T03:12:20.515Z,98944.38
2022-10-23T03:14:47.267Z,98949.81
2022-10-23T03:17:14.233Z,98941.09
2022-10-23T03:19:41.107Z,98945.59
2022-10-23T03:22:08.115Z,98944.72
2022-10-23T03:24:34.895Z,98943.78
2022-10-23T03:27:01.843Z,98938.50
2022-10-23T03:29:28.586Z,98940.50
2022-10-23T03:31:55.836Z,98939.81
2022-10-23T03:34:22.647Z,98937.22
2022-10-23T03:36:49.826Z,98925.94
2022-10-23T03:39:17.440Z,98928.59
2022-10-23T03:41:44.457Z,98924.22
2022-10-23T03:44:11.304Z,98933.81
2022-10-23T03:46:38.317Z,98922.41
2022-10-23T03:49:05.818Z,98925.13
2022-10-23T03:51:32.793Z,98925.31
2022-10-23T03:53:59.659Z,98928.09
2022-10-23T03:56:26.881Z,98940.44
2022-10-23T03:58:53.648Z,98944.88
2022-10-23T04:01:20.694Z,98948.53
2022-10-23T04:03:47.591Z,98942.44
2022-10-23T04:06:14.552Z,98939.97
2022-10-23T04:08:44.305Z,98939.97
2022-10-23T04:11:11.675Z,98940.03
2022-10-23T04:13:38.525Z,98940.22
2022-10-23T04:16:05.827Z,98935.84
2022-10-23T04:18:32.669Z,98933.38
2022-10-23T04:20:59.701Z,98928.09
2022-10-23T04:23:26.554Z,98929.72
2022-10-23T04:25:57.998Z,98918.22
2022-10-23T04:28:25.463Z,98917.34
2022-10-23T04:30:52.974Z,98927.06
2022-10-23T04:33:21.465Z,98929.00
2022-10-23T04:35:48.581Z,98925.66
2022-10-23T04:38:15.357Z,98926.63
2022-10-23T04:40:42.483Z,98931.16
2022-10-23T04:43:09.338Z,98918.94
2022-10-23T04:45:36.486Z,98917.28
2022-10-23T04:48:03.719Z,98920.06
2022-10-23T04:50:30.869Z,98915.78
2022-10-23T04:52:58.414Z,98909.69
2022-10-23T04:55:25.492Z,98918.69
2022-10-23T04:58:11.518Z,98921.28
2022-10-23T05:00:40.370Z,98913.28
2022-10-23T05:03:07.391Z,98914.19
2022-10-23T05:05:34.466Z,98922.13
2022-10-23T05:08:01.579Z,98926.69
2022-10-23T05:10:29.239Z,98920.63
2022-10-23T05:12:56.360Z,98917.41
2022-10-23T05:15:23.350Z,98920.09
2022-10-23T05:17:58.226Z,98919.25
2022-10-23T05:20:29.208Z,98920.94
2022-10-23T05:23:02.406Z,98926.31
2022-10-23T05:25:31.011Z,98928.22
2022-10-23T05:27:58.003Z,98926.47
2022-10-23T05:30:25.092Z,98929.97
2022-10-23T05:32:52.038Z,98932.72
2022-10-23T05:35:23.684Z,98933.59
2022-10-23T05:37:54.587Z,98931.81
2022-10-23T05:40:21.673Z,98924.84
2022-10-23T05:42:48.892Z,98931.13
2022-10-23T05:45:16.691Z,98933.84
2022-10-23T05:47:46.544Z,98936.53
2022-10-23T05:50:13.657Z,98940.09
2022-10-23T05:52:40.816Z,98941.06
2022-10-23T05:55:08.556Z,98946.41
2022-10-23T05:57:35.631Z,98941.97
2022-10-23T06:00:02.779Z,98938.41
2022-10-23T06:02:29.897Z,98940.03
2022-10-23T06:04:56.893Z,98944.41
2022-10-23T06:07:31.312Z,98939.91
2022-10-23T06:10:00.763Z,98942.47
2022-10-23T06:12:27.595Z,98938.03
2022-10-23T06:14:54.584Z,98930.09
2022-10-23T06:17:21.475Z,98927.25
2022-10-23T06:19:48.468Z,98938.47
2022-10-23T06:22:15.418Z,98933.06
2022-10-23T06:24:42.450Z,98949.75
2022-10-23T06:27:09.280Z,98955.06
2022-10-23T06:29:36.440Z,98967.41
2022-10-23T06:32:03.306Z,98963.91
2022-10-23T06:34:30.296Z,98962.19
2022-10-23T06:36:57.087Z,98961.19
2022-10-23T06:39:26.109Z,98958.47
2022-10-23T06:41:55.383Z,98970.66
2022-10-23T06:44:22.532Z,98980.94
2022-10-23T06:46:49.550Z,98973.00
2022-10-23T06:49:18.731Z,98973.72
2022-10-23T06:51:45.524Z,98975.44
2022-10-23T06:54:12.408Z,98979.75
2022-10-23T06:56:39.704Z,98989.38
2022-10-23T06:59:07.785Z,98985.88
2022-10-23T07:01:36.033Z,98991.97
2022-10-23T07:04:03.122Z,98990.16
2022-10-23T07:06:30.153Z,98996.28
2022-10-23T07:08:57.046Z,98991.75
2022-10-23T07:11:24.164Z,98992.59
2022-10-23T07:13:51.534Z,98981.97
2022-10-23T07:16:22.466Z,98975.59
2022-10-23T07:18:59.695Z,98974.53
2022-10-23T07:21:35.719Z,98977.97
2022-10-23T07:24:03.672Z,98976.09
2022-10-23T07:26:32.915Z,98981.19
2022-10-23T07:28:59.788Z,98984.56
2022-10-23T07:31:28.378Z,98982.69
2022-10-23T07:33:55.500Z,98979.91
2022-10-23T07:36:23.365Z,98973.56
2022-10-23T07:38:52.162Z,98968.97
2022-10-23T07:41:19.363Z,98974.03
2022-10-23T07:43:46.810Z,98974.72
2022-10-23T07:46:13.879Z,98972.78
2022-10-23T07:48:41.354Z,98968.25
2022-10-23T07:51:14.949Z,98963.75
2022-10-23T07:53:44.940Z,98961.03
2022-10-23T07:56:23.190Z,98961.72
2022-10-23T07:58:54.234Z,98962.38
2022-10-23T08:01:32.576Z,98967.38
2022-10-23T08:04:00.941Z,98964.50
2022-10-23T08:06:28.949Z,98968.72
2022-10-23T08:08:56.052Z,98969.41
2022-10-23T08:11:27.966Z,98963.06
2022-10-23T08:13:58.790Z,98966.34
2022-10-23T08:16:25.990Z,98962.59
2022-10-23T08:18:52.995Z,98974.69
2022-10-23T08:21:20.409Z,98970.97
2022-10-23T08:23:47.304Z,98974.41
2022-10-23T08:26:15.297Z,98963.50
2022-10-23T08:28:42.136Z,98967.63
2022-10-23T08:31:19.822Z,98963.03
2022-10-23T08:33:46.939Z,98972.56
2022-10-23T08:36:25.780Z,98971.53
2022-10-23T08:38:55.108Z,98976.53
2022-10-23T08:41:25.146Z,98975.50
2022-10-23T08:44:01.368Z,98973.38
2022-10-23T08:46:40.815Z,98966.91
2022-10-23T08:49:49.166Z,98966.69
2022-10-23T08:52:35.323Z,98964.56
2022-10-23T08:55:33.688Z,98961.59
2022-10-23T08:58:31.875Z,98962.13
2022-10-23T09:00:59.061Z,98959.16
2022-10-23T09:03:27.606Z,98961.56
2022-10-23T09:06:12.153Z,98942.69
2022-10-23T09:09:04.407Z,98935.34
2022-10-23T09:11:49.068Z,98933.97
2022-10-23T09:14:53.615Z,98920.38
2022-10-23T09:17:28.567Z,98926.97
2022-10-23T09:20:35.233Z,98916.00
2022-10-23T09:23:14.462Z,98929.72
2022-10-23T09:25:43.339Z,98924.25
2022-10-23T09:28:21.991Z,98922.97
2022-10-23T09:30:50.171Z,98919.22
2022-10-23T09:33:28.268Z,98926.63
2022-10-23T09:36:12.478Z,98931.94
2022-10-23T09:38:45.366Z,98931.59
2022-10-23T09:41:36.428Z,98942.88
2022-10-23T09:44:24.818Z,98942.63
2022-10-23T09:47:01.336Z,98944.19
2022-10-23T09:49:34.197Z,98951.94
2022-10-23T09:52:04.799Z,98952.44
2022-10-23T09:54:44.470Z,98959.31
2022-10-23T09:57:37.112Z,98952.00
2022-10-23T10:00:27.719Z,98949.28
2022-10-23T10:03:05.345Z,98938.47
2022-10-23T10:05:39.613Z,98938.16
2022-10-23T10:08:31.952Z,98940.56
2022-10-23T10:11:13.193Z,98936.88
2022-10-23T10:14:03.599Z,98931.34
2022-10-23T10:16:54.571Z,98924.16
2022-10-23T10:19:53.947Z,98926.66
2022-10-23T10:22:41.925Z,98928.06
2022-10-23T10:25:52.117Z,98918.06
2022-10-23T10:28:37.519Z,98918.53
2022-10-23T10:31:23.525Z,98914.91
2022-10-23T10:34:14.181Z,98919.09
2022-10-23T10:37:13.443Z,98903.06
2022-10-23T10:40:06.205Z,98903.81
2022-10-23T10:43:00.320Z,98902.00
2022-10-23T10:45:37.948Z,98901.34
2022-10-23T10:48:47.738Z,98900.59
2022-10-23T10:51:45.981Z,98891.75
2022-10-23T10:54:19.153Z,98898.09
2022-10-23T10:56:48.468Z,98894.69
2022-10-23T10:59:31.967Z,98883.41
2022-10-23T11:02:17.520Z,98874.66
2022-10-23T11:05:05.073Z,98873.09
2022-10-23T11:07:43.453Z,98870.63
2022-10-23T11:10:19.693Z,98876.22
2022-10-23T11:12:48.962Z,98867.69
2022-10-23T11:15:23.613Z,98863.56
2022-10-23T11:18:24.204Z,98864.63
2022-10-23T11:21:11.898Z,98853.13
2022-10-23T11:23:57.153Z,98855.78
2022-10-23T11:26:35.127Z,98851.53
2022-10-23T11:29:51.720Z,98845.34
2022-10-23T11:32:38.247Z,98848.03
2022-10-23T11:35:42.650Z,98836.50
2022-10-23T11:38:35.515Z,98839.75
2022-10-23T11:41:18.188Z,98833.31
2022-10-23T11:43:55.454Z,98835.78
2022-10-23T11:46:22.201Z,98832.91
2022-10-23T11:48:50.512Z,98831.78
2022-10-23T11:51:35.754Z,98827.97
2022-10-23T11:54:12.071Z,98819.91
2022-10-23T11:57:10.708Z,98816.25
2022-10-23T11:59:51.889Z,98808.94
2022-10-23T12:02:43.385Z,98810.63
2022-10-23T12:05:35.524Z,98814.16
2022-10-23T12:08:07.656Z,98815.28
2022-10-23T12:10:45.816Z,98807.31
2022-10-23T12:13:51.263Z,98807.38
2022-10-23T12:16:18.339Z,98795.75
2022-10-23T12:18:53.956Z,98794.91
2022-10-23T12:21:28.442Z,98789.66
2022-10-23T12:24:43.469Z,98787.91
2022-10-23T12:27:23.986Z,98786.03
2022-10-23T12:30:24.888Z,98765.66
2022-10-23T12:33:03.275Z,98761.84
2022-10-23T12:36:03.134Z,98762.69
2022-10-23T12:38:34.061Z,98758.16
2022-10-23T12:41:15.028Z,98749.28
2022-10-23T12:44:03.977Z,98741.22
2022-10-23T12:46:43.484Z,98735.81
2022-10-23T12:49:21.336Z,98734.88
2022-10-23T12:52:14.988Z,98745.41
2022-10-23T12:54:42.457Z,98740.75
2022-10-23T12:57:30.324Z,98730.94
2022-10-23T13:00:08.292Z,98728.00
2022-10-23T13:02:35.449Z,98728.38
2022-10-23T13:05:08.122Z,98722.72
2022-10-23T13:07:43.441Z,98723.38
2022-10-23T13:10:17.573Z,98717.66
2022-10-23T13:12:56.945Z,98713.75
2022-10-23T13:15:27.039Z,98718.56
2022-10-23T13:17:53.982Z,98729.75
2022-10-23T13:20:27.540Z,98717.00
2022-10-23T13:23:10.050Z,98711.59
2022-10-23T13:25:39.563Z,98709.47
2022-10-23T13:28:25.539Z,98714.78
2022-10-23T13:31:27.758Z,98713.63
2022-10-23T13:34:00.769Z,98716.94
2022-10-23T13:36:34.670Z,98710.75
2022-10-23T13:39:27.291Z,98701.06
2022-10-23T13:41:54.488Z,98698.19
2022-10-23T13:44:24.984Z,98699.91
2022-10-23T13:46:52.711Z,98707.88
2022-10-23T13:49:20.245Z,98706.84
2022-10-23T13:51:54.715Z,98710.25
2022-10-23T13:54:25.487Z,98709.28
2022-10-23T13:56:55.578Z,98703.94
2022-10-23T13:59:23.384Z,98710.06
2022-10-23T14:01:51.659Z,98706.50
2022-10-23T14:04:19.861Z,98716.22
2022-10-23T14:06:47.391Z,98700.97
2022-10-23T14:09:17.597Z,98699.28
2022-10-23T14:11:44.824Z,98705.38
2022-10-23T14:14:11.702Z,98698.22
2022-10-23T14:16:40.190Z,98672.34
2022-10-23T14:19:08.306Z,98666.06
2022-10-23T14:21:36.088Z,98661.56
2022-10-23T14:24:03.043Z,98665.84
2022-10-23T14:26:30.470Z,98658.59
2022-10-23T14:29:01.109Z,98668.19
2022-10-23T14:31:32.306Z,98667.25
2022-10-23T14:34:01.670Z,98669.94
2022-10-23T14:36:38.585Z,98667.25
2022-10-23T14:39:16.969Z,98676.09
2022-10-23T14:41:44.334Z,98673.50
2022-10-23T14:44:11.400Z,98676.00
2022-10-23T14:46:38.669Z,98665.44
2022-10-23T14:49:06.045Z,98667.34
2022-10-23T14:51:35.375Z,98664.66
2022-10-23T14:54:07.924Z,98666.50
2022-10-23T14:56:40.894Z,98652.34
2022-10-23T14:59:10.939Z,98642.63
2022-10-23T15:01:45.287Z,98647.13
2022-10-23T15:04:14.767Z,98640.06
2022-10-23T15:06:43.567Z,98631.34
2022-10-23T15:09:10.437Z,98630.50
2022-10-23T15:11:38.265Z,98627.94
2022-10-23T15:14:05.890Z,98630.69
2022-10-23T15:16:33.088Z,98629.94
2022-10-23T15:18:59.922Z,98621.19
2022-10-23T15:21:27.311Z,98620.25
2022-10-23T15:23:54.963Z,98622.19
2022-10-23T15:26:23.419Z,98626.72
2022-10-23T15:28:59.224Z,98622.59
2022-10-23T15:31:29.117Z,98617.38
2022-10-23T15:34:00.065Z,98620.25
2022-10-23T15:36:27.559Z,98608.84
2022-10-23T15:38:54.919Z,98618.66
2022-10-23T15:41:34.274Z,98618.00
2022-10-23T15:44:04.414Z,98619.81
2022-10-23T15:46:31.988Z,98627.06
2022-10-23T15:48:59.802Z,98629.06
2022-10-23T15:51:27.330Z,98622.25
2022-10-23T15:53:57.010Z,98622.38
2022-10-23T15:56:25.533Z,98627.78
2022-10-23T15:58:52.501Z,98623.63
2022-10-23T16:01:19.638Z,98624.59
2022-10-23T16:03:47.498Z,98624.88
2022-10-23T16:06:17.738Z,98616.16
2022-10-23T16:08:45.214Z,98611.88
2022-10-23T16:11:20.209Z,98623.50
2022-10-23T16:13:47.752Z,98628.06
2022-10-23T16:16:16.402Z,98618.47
2022-10-23T16:18:44.864Z,98610.59
2022-10-23T16:21:28.358Z,98610.81
2022-10-23T16:23:58.193Z,98603.91
2022-10-23T16:26:27.190Z,98603.13
2022-10-23T16:28:57.966Z,98597.16
2022-10-23T16:31:26.595Z,98587.59
2022-10-23T16:36:25.324Z,98598.44
2022-10-23T16:38:52.311Z,98587.88
2022-10-23T16:41:19.538Z,98595.88
2022-10-23T16:43:46.408Z,98599.47
2022-10-23T16:46:21.024Z,98599.47
2022-10-23T16:48:50.331Z,98600.34
2022-10-23T16:51:22.764Z,98604.78
2022-10-23T16:53:49.689Z,98603.75
2022-10-23T16:56:21.820Z,98600.25
2022-10-23T16:58:48.842Z,98595.78
2022-10-23T17:01:23.281Z,98590.44
2022-10-23T17:03:52.192Z,98590.44
2022-10-23T17:06:24.050Z,98592.25
2022-10-23T17:08:51.617Z,98583.50
2022-10-23T17:11:27.086Z,98584.50
2022-10-23T17:14:01.071Z,98593.31
2022-10-23T17:16:39.999Z,98586.31
2022-10-23T17:19:20.547Z,98585.53
2022-10-23T17:21:56.215Z,98589.91
2022-10-23T17:24:23.982Z,98588.19
2022-10-23T17:26:53.018Z,98586.59
2022-10-23T17:29:21.067Z,98577.88
2022-10-23T17:31:51.220Z,98580.53
2022-10-23T17:34:22.829Z,98583.28
2022-10-23T17:36:54.783Z,98590.41
2022-10-23T17:39:28.549Z,98594.13
2022-10-23T17:41:56.133Z,98596.13
2022-10-23T17:44:23.131Z,98588.47
2022-10-23T17:46:53.601Z,98585.03
2022-10-23T17:49:22.260Z,98580.75
2022-10-23T17:51:58.582Z,98572.13
2022-10-23T17:54:28.041Z,98569.56
2022-10-23T17:56:56.115Z,98564.34
2022-10-23T17:59:23.900Z,98562.75
2022-10-23T18:01:51.399Z,98562.09
2022-10-23T18:04:20.545Z,98560.59
2022-10-23T18:06:52.878Z,98563.53
2022-10-23T18:09:22.885Z,98560.22
2022-10-23T18:11:50.407Z,98560.31
2022-10-23T18:14:19.802Z,98561.28
2022-10-23T18:16:48.248Z,98564.78
2022-10-23T18:19:18.237Z,98555.22
2022-10-23T18:21:46.485Z,98562.44
2022-10-23T18:24:13.842Z,98568.91
2022-10-23T18:26:42.490Z,98575.47
2022-10-23T18:29:12.060Z,98570.44
2022-10-23T18:31:40.066Z,98556.41
2022-10-23T18:34:21.776Z,98558.09
2022-10-23T18:36:50.831Z,98560.00
2022-10-23T18:39:22.566Z,98556.59
2022-10-23T18:41:56.986Z,98559.56
2022-10-23T18:44:26.979Z,98571.16
2022-10-23T18:46:57.051Z,98558.06
2022-10-23T18:49:24.235Z,98563.56
2022-10-23T18:51:51.410Z,98556.53
2022-10-23T18:54:20.804Z,98552.28
2022-10-23T18:56:48.360Z,98559.50
2022-10-23T18:59:20.028Z,98567.66
2022-10-23T19:01:47.928Z,98561.69
2022-10-23T19:04:17.807Z,98546.88
2022-10-23T19:06:47.761Z,98543.28
2022-10-23T19:09:15.241Z,98534.44
2022-10-23T19:11:43.346Z,98528.28
2022-10-23T19:14:11.214Z,98515.84
2022-10-23T19:16:54.422Z,98512.25
2022-10-23T19:19:27.234Z,98515.66
2022-10-23T19:21:55.909Z,98509.59
2022-10-23T19:24:41.684Z,98511.50
2022-10-23T19:27:09.478Z,98502.81
2022-10-23T19:29:43.487Z,98500.34
2022-10-23T19:32:11.810Z,98499.78
2022-10-23T19:34:38.786Z,98507.19
2022-10-23T19:37:06.620Z,98511.06
2022-10-23T19:39:34.515Z,98497.91
2022-10-23T19:42:06.204Z,98487.94
2022-10-23T19:44:33.418Z,98484.13
2022-10-23T19:47:04.204Z,98480.31
2022-10-23T19:49:32.646Z,98467.91
2022-10-23T19:51:59.911Z,98464.38
2022-10-23T19:54:27.168Z,98455.78
2022-10-23T19:56:56.302Z,98453.22
2022-10-23T19:59:25.647Z,98463.09
2022-10-23T20:01:53.146Z,98473.25
2022-10-23T20:04:20.725Z,98469.09
2022-10-23T20:06:48.200Z,98479.78
2022-10-23T20:09:15.122Z,98478.06
2022-10-23T20:11:43.651Z,98481.59
2022-10-23T20:14:12.287Z,98472.00
2022-10-23T20:16:44.877Z,98456.16
2022-10-23T20:21:48.517Z,98458.81
2022-10-23T20:24:18.713Z,98473.03
2022-10-23T20:26:49.973Z,98473.13
2022-10-23T20:29:16.880Z,98478.53
2022-10-23T20:31:44.258Z,98469.84
2022-10-23T20:34:11.834Z,98462.72
2022-10-23T20:36:46.405Z,98461.88
2022-10-23T20:39:21.702Z,98456.56
2022-10-23T20:41:48.798Z,98448.69
2022-10-23T20:44:18.095Z,98462.91
2022-10-23T20:46:45.876Z,98461.19
2022-10-23T20:49:14.299Z,98455.13
2022-10-23T20:51:42.425Z,98449.91
2022-10-23T20:54:09.651Z,98453.34
2022-10-23T20:56:39.102Z,98451.63
2022-10-23T20:59:17.746Z,98457.13
2022-10-23T21:01:49.965Z,98445.75
2022-10-23T21:04:25.192Z,98448.59
2022-10-23T21:07:09.427Z,98444.22
2022-10-23T21:09:38.076Z,98442.44
2022-10-23T21:12:06.677Z,98435.69
2022-10-23T21:14:34.788Z,98434.88
2022-10-23T21:17:02.199Z,98427.88
2022-10-23T21:19:30.140Z,98431.38
2022-10-23T21:21:57.345Z,98438.16
2022-10-23T21:24:24.668Z,98438.09
2022-10-23T21:26:51.828Z,98444.13
2022-10-23T21:29:20.013Z,98444.91
2022-10-23T21:32:01.541Z,98454.66
2022-10-23T21:34:29.191Z,98453.63
2022-10-23T21:37:13.420Z,98455.22
2022-10-23T21:39:45.859Z,98460.53
2022-10-23T21:42:15.024Z,98448.31
2022-10-23T21:44:42.038Z,98455.22
2022-10-23T21:47:09.173Z,98453.81
2022-10-23T21:49:36.068Z,98455.53
2022-10-23T21:52:04.695Z,98458.19
2022-10-23T21:54:31.609Z,98442.13
2022-10-23T21:56:58.681Z,98448.13
2022-10-23T21:59:30.145Z,98448.88
2022-10-23T22:02:02.045Z,98457.50
2022-10-23T22:04:33.025Z,98468.03
2022-10-23T22:07:03.001Z,98476.72
2022-10-23T22:09:31.512Z,98485.53
2022-10-23T22:12:00.068Z,98464.03
2022-10-23T22:14:28.288Z,98451.72
2022-10-23T22:16:55.338Z,98456.06
2022-10-23T22:19:23.182Z,98464.88
2022-10-23T22:21:51.380Z,98470.19
2022-10-23T22:24:18.816Z,98471.94
2022-10-23T22:26:53.209Z,98481.50
2022-10-23T22:29:25.627Z,98487.47
2022-10-23T22:31:53.700Z,98489.94
2022-10-23T22:37:16.122Z,98503.88
2022-10-23T22:39:43.280Z,98503.78
2022-10-23T22:42:10.382Z,98523.38
2022-10-23T22:44:37.358Z,98523.47
2022-10-23T22:47:04.735Z,98519.31
2022-10-23T22:49:31.601Z,98516.75
2022-10-23T22:51:58.634Z,98520.81
2022-10-23T22:54:25.483Z,98523.00
2022-10-23T22:56:52.862Z,98529.22
2022-10-23T22:59:19.720Z,98524.38
2022-10-23T23:01:48.736Z,98555.75
2022-10-23T23:07:11.735Z,98586.69
2022-10-23T23:09:42.193Z,98574.47
2022-10-23T23:12:13.133Z,98562.06
2022-10-23T23:14:41.153Z,98571.31
2022-10-23T23:17:10.355Z,98571.13
2022-10-23T23:19:37.978Z,98585.38
2022-10-23T23:22:05.848Z,98586.88
2022-10-23T23:24:33.093Z,98585.06
2022-10-23T23:27:00.205Z,98589.34
2022-10-23T23:29:28.435Z,98591.03
2022-10-23T23:31:55.567Z,98582.22
2022-10-23T23:34:22.373Z,98561.19
2022-10-23T23:36:49.457Z,98550.59
2022-10-23T23:39:16.716Z,98564.03
2022-10-23T23:41:43.715Z,98567.81
2022-10-23T23:44:10.546Z,98573.03
2022-10-23T23:46:37.637Z,98575.69
2022-10-23T23:49:04.479Z,98575.50
2022-10-23T23:51:31.859Z,98573.53
2022-10-23T23:53:58.670Z,98576.94
2022-10-23T23:56:25.921Z,98583.78
2022-10-23T23:58:52.769Z,98575.81
